Time;durP1;ratioP1;P1;durP2;ratioP2;P2;SDS_P1;SDS_P2;PMS_P1;PMS_P2;Temp;Humidity;BMP_temperature;BMP_pressure;BME280_temperature;BME280_humidity;BME280_pressure;Samples;Min_cycle;Max_cycle;Signal;HPM_P1;HPM_P2
2021/11/05 00:00:43;;;;;;;14.13;10.75;;;7.90;99.90;;;;;;2105249;28;20085;-71
2021/11/05 00:01:44;;;;;;;14.20;10.23;;;7.90;99.90;;;;;;2105124;28;20044;-72
2021/11/05 00:02:44;;;;;;;13.75;10.02;;;7.90;99.90;;;;;;2105417;28;20527;-72
2021/11/05 00:03:45;;;;;;;16.48;10.48;;;7.90;99.90;;;;;;2105300;28;20445;-72
2021/11/05 00:04:46;;;;;;;16.25;10.88;;;7.90;99.90;;;;;;2105051;28;20028;-71
2021/11/05 00:05:46;;;;;;;15.30;10.88;;;7.90;99.90;;;;;;2104879;28;20024;-71
2021/11/05 00:06:47;;;;;;;15.98;11.23;;;7.90;99.90;;;;;;2096439;28;20132;-71
2021/11/05 00:07:48;;;;;;;16.92;10.73;;;7.90;99.90;;;;;;2096249;28;20036;-71
2021/11/05 00:08:48;;;;;;;14.85;10.68;;;7.90;99.90;;;;;;2104713;28;20023;-71
2021/11/05 00:09:49;;;;;;;14.38;10.60;;;7.90;99.90;;;;;;2105575;28;20051;-70
2021/11/05 00:10:51;;;;;;;14.65;10.98;;;7.90;99.90;;;;;;2106128;28;20400;-70
2021/11/05 00:11:51;;;;;;;15.15;10.63;;;7.90;99.90;;;;;;2106263;28;20136;-71
2021/11/05 00:12:52;;;;;;;16.30;11.50;;;7.90;99.90;;;;;;2106824;28;20051;-70
2021/11/05 00:13:52;;;;;;;14.48;10.63;;;7.90;99.90;;;;;;2097817;28;20139;-70
2021/11/05 00:14:53;;;;;;;15.63;10.80;;;7.80;99.90;;;;;;2097571;28;20013;-71
2021/11/05 00:15:53;;;;;;;15.15;11.27;;;7.90;99.90;;;;;;2106504;28;20077;-72
2021/11/05 00:16:54;;;;;;;16.35;11.65;;;7.90;99.90;;;;;;2108016;28;20440;-71
2021/11/05 00:17:55;;;;;;;15.13;11.15;;;7.80;99.90;;;;;;2105703;28;20032;-71
2021/11/05 00:18:55;;;;;;;16.20;11.52;;;7.80;99.90;;;;;;2106792;28;20020;-72
2021/11/05 00:19:56;;;;;;;15.63;11.73;;;7.80;99.90;;;;;;2106848;28;20048;-70
2021/11/05 00:20:57;;;;;;;16.02;11.52;;;7.80;99.90;;;;;;2106242;28;20028;-71
2021/11/05 00:21:57;;;;;;;16.77;12.27;;;7.80;99.90;;;;;;2106232;28;20395;-73
2021/11/05 00:23:28;;;;;;;17.50;11.95;;;7.80;99.90;;;;;;2106401;28;20082;-72
2021/11/05 00:24:31;;;;;;;17.20;12.00;;;7.80;99.90;;;;;;2102235;28;20028;-69
2021/11/05 00:25:38;;;;;;;19.85;12.32;;;7.70;99.90;;;;;;2099381;28;20039;-71
2021/11/05 00:26:52;;;;;;;15.82;11.82;;;7.70;99.90;;;;;;2090838;28;20032;-71
2021/11/05 00:28:06;;;;;;;17.48;12.07;;;7.70;99.90;;;;;;2095027;28;20548;-72
2021/11/05 00:29:10;;;;;;;18.55;12.65;;;7.70;99.90;;;;;;2092330;28;20029;-71
2021/11/05 00:30:17;;;;;;;17.63;12.68;;;7.70;99.90;;;;;;2098891;28;20434;-70
2021/11/05 00:31:21;;;;;;;20.25;12.38;;;7.70;99.90;;;;;;2098212;28;20025;-72
2021/11/05 00:32:25;;;;;;;18.27;12.70;;;7.70;99.90;;;;;;2090504;28;20497;-69
2021/11/05 00:33:39;;;;;;;18.20;12.65;;;7.70;99.90;;;;;;2082195;28;20467;-70
2021/11/05 00:34:43;;;;;;;18.60;12.52;;;7.70;99.90;;;;;;2092635;28;20037;-73
2021/11/05 00:36:11;;;;;;;19.15;12.30;;;7.70;99.90;;;;;;2098657;28;20051;-71
2021/11/05 00:37:22;;;;;;;19.42;12.70;;;7.70;99.90;;;;;;2102076;28;20055;-71
2021/11/05 00:38:26;;;;;;;17.08;11.80;;;7.70;99.90;;;;;;2099242;28;20074;-71
2021/11/05 00:39:26;;;;;;;19.05;12.25;;;7.70;99.90;;;;;;2106246;28;20032;-71
2021/11/05 00:40:29;;;;;;;18.02;12.73;;;7.70;99.90;;;;;;2107060;28;20478;-71
2021/11/05 00:41:30;;;;;;;18.95;12.52;;;7.80;99.90;;;;;;2106975;28;20063;-71
2021/11/05 00:42:30;;;;;;;19.02;12.32;;;7.80;99.90;;;;;;2106632;28;20031;-69
2021/11/05 00:43:31;;;;;;;17.70;12.00;;;7.80;99.90;;;;;;2097676;28;20032;-70
2021/11/05 00:44:31;;;;;;;17.88;11.75;;;7.80;99.90;;;;;;2097332;28;20024;-70
2021/11/05 00:45:33;;;;;;;18.65;12.73;;;7.70;99.90;;;;;;2106354;28;20364;-71
2021/11/05 00:46:34;;;;;;;18.02;12.35;;;7.80;99.90;;;;;;2107072;28;20024;-71
2021/11/05 00:47:34;;;;;;;18.13;12.05;;;7.80;99.90;;;;;;2106791;28;20411;-71
2021/11/05 00:48:35;;;;;;;17.00;12.00;;;7.80;99.90;;;;;;2106933;28;20028;-71
2021/11/05 00:49:36;;;;;;;18.00;12.32;;;7.80;99.90;;;;;;2107049;28;20028;-71
2021/11/05 00:50:37;;;;;;;17.95;12.63;;;7.80;99.90;;;;;;2106573;28;20028;-72
2021/11/05 00:51:38;;;;;;;18.23;11.82;;;7.80;99.90;;;;;;2106829;28;20040;-71
2021/11/05 00:52:40;;;;;;;18.90;12.38;;;7.80;99.90;;;;;;2106491;28;20516;-71
2021/11/05 00:53:40;;;;;;;17.48;12.02;;;7.80;99.90;;;;;;2091100;28;20068;-72
2021/11/05 00:54:41;;;;;;;21.15;12.45;;;7.80;99.90;;;;;;2099840;28;20415;-71
2021/11/05 00:55:41;;;;;;;19.27;13.05;;;7.80;99.90;;;;;;2109093;28;20020;-71
2021/11/05 00:56:42;;;;;;;20.02;12.10;;;7.80;99.90;;;;;;2108007;28;20056;-71
2021/11/05 00:57:43;;;;;;;18.13;12.45;;;7.80;99.90;;;;;;2108421;28;20081;-71
2021/11/05 00:58:43;;;;;;;18.10;12.00;;;7.80;99.90;;;;;;2107828;28;20012;-71
2021/11/05 00:59:44;;;;;;;21.15;12.93;;;7.80;99.90;;;;;;2106828;28;20024;-71
2021/11/05 01:00:45;;;;;;;16.45;12.13;;;7.80;99.90;;;;;;2106807;28;20123;-71
2021/11/05 01:01:45;;;;;;;20.08;12.65;;;7.80;99.90;;;;;;2105874;28;20027;-71
2021/11/05 01:02:46;;;;;;;20.05;12.70;;;7.80;99.90;;;;;;2106032;28;20032;-71
2021/11/05 01:03:47;;;;;;;17.88;11.82;;;7.80;99.90;;;;;;2106619;28;20078;-71
2021/11/05 01:04:47;;;;;;;18.83;12.30;;;7.70;99.90;;;;;;2105415;28;20032;-71
2021/11/05 01:05:48;;;;;;;17.85;12.32;;;7.80;99.90;;;;;;2105765;28;20035;-71
2021/11/05 01:06:48;;;;;;;19.73;12.45;;;7.70;99.90;;;;;;2106267;28;20031;-70
2021/11/05 01:07:49;;;;;;;19.27;12.48;;;7.80;99.90;;;;;;2105765;28;20070;-71
2021/11/05 01:08:49;;;;;;;19.48;12.73;;;7.80;99.90;;;;;;2105965;28;20028;-70
2021/11/05 01:09:50;;;;;;;20.30;12.65;;;7.70;99.90;;;;;;2106392;28;20047;-70
2021/11/05 01:10:51;;;;;;;20.42;12.35;;;7.80;99.90;;;;;;2106600;28;20034;-70
2021/11/05 01:11:51;;;;;;;18.27;12.20;;;7.80;99.90;;;;;;2106143;28;20099;-70
2021/11/05 01:12:52;;;;;;;19.92;12.60;;;7.80;99.90;;;;;;2106624;28;20050;-70
2021/11/05 01:13:53;;;;;;;20.10;13.07;;;7.80;99.90;;;;;;2105954;28;20073;-70
2021/11/05 01:14:54;;;;;;;18.90;12.63;;;7.80;99.90;;;;;;2105532;28;20446;-70
2021/11/05 01:15:54;;;;;;;18.17;12.80;;;7.80;99.90;;;;;;2106393;28;20028;-70
2021/11/05 01:16:58;;;;;;;20.38;12.75;;;7.80;99.90;;;;;;2106375;28;20125;-70
2021/11/05 01:17:59;;;;;;;21.13;13.43;;;7.80;99.90;;;;;;2106468;28;20040;-70
2021/11/05 01:19:00;;;;;;;18.38;12.30;;;7.80;99.90;;;;;;2106213;28;20399;-70
2021/11/05 01:20:01;;;;;;;19.52;12.60;;;7.80;99.90;;;;;;2106396;28;20042;-70
2021/11/05 01:21:02;;;;;;;21.35;12.77;;;7.80;99.90;;;;;;2105976;28;20032;-70
2021/11/05 01:22:03;;;;;;;21.52;13.23;;;7.80;99.90;;;;;;2105392;28;20055;-70
2021/11/05 01:23:04;;;;;;;22.52;13.23;;;7.80;99.90;;;;;;2105534;28;20043;-70
2021/11/05 01:24:05;;;;;;;21.38;12.52;;;7.80;99.90;;;;;;2106306;28;20040;-70
2021/11/05 01:25:06;;;;;;;21.85;13.05;;;7.80;99.90;;;;;;2105787;28;20432;-70
2021/11/05 01:26:06;;;;;;;21.15;13.02;;;7.80;99.90;;;;;;2106322;28;20020;-70
2021/11/05 01:27:07;;;;;;;20.50;13.18;;;7.80;99.90;;;;;;2106237;28;20104;-70
2021/11/05 01:28:08;;;;;;;22.15;13.75;;;7.80;99.90;;;;;;2105639;28;20089;-70
2021/11/05 01:29:09;;;;;;;18.85;12.75;;;7.80;99.90;;;;;;2097175;28;20033;-70
2021/11/05 01:30:11;;;;;;;20.35;13.02;;;7.80;99.90;;;;;;2105723;28;20241;-70
2021/11/05 01:31:11;;;;;;;22.52;13.27;;;7.80;99.90;;;;;;2105548;28;20024;-70
2021/11/05 01:32:12;;;;;;;19.90;12.73;;;7.80;99.90;;;;;;2097000;28;20417;-71
2021/11/05 01:33:13;;;;;;;19.50;12.60;;;7.80;99.90;;;;;;2105791;28;20403;-70
2021/11/05 01:34:14;;;;;;;19.45;12.88;;;7.80;99.90;;;;;;2106032;28;20028;-71
2021/11/05 01:35:15;;;;;;;20.58;12.93;;;7.80;99.90;;;;;;2106038;28;20043;-70
2021/11/05 01:36:16;;;;;;;19.30;12.48;;;7.80;99.90;;;;;;2106024;28;20064;-70
2021/11/05 01:37:17;;;;;;;19.75;12.68;;;7.80;99.90;;;;;;2106272;28;20028;-70
2021/11/05 01:38:18;;;;;;;20.20;12.80;;;7.80;99.90;;;;;;2106034;28;20074;-70
2021/11/05 01:39:19;;;;;;;20.63;12.45;;;7.80;99.90;;;;;;2106269;28;20071;-70
2021/11/05 01:40:19;;;;;;;18.88;11.95;;;7.80;99.90;;;;;;2106362;28;20028;-70
2021/11/05 01:41:24;;;;;;;18.75;12.93;;;7.90;99.90;;;;;;2105884;28;20028;-71
2021/11/05 01:42:25;;;;;;;20.23;12.52;;;7.90;99.90;;;;;;2105616;28;20027;-71
2021/11/05 01:43:26;;;;;;;19.92;12.50;;;7.80;99.90;;;;;;2105632;28;20489;-71
2021/11/05 01:44:27;;;;;;;21.20;12.48;;;7.80;99.90;;;;;;2105649;28;20028;-71
2021/11/05 01:45:29;;;;;;;21.23;12.70;;;7.90;99.90;;;;;;2105998;28;20107;-70
2021/11/05 01:46:30;;;;;;;19.30;11.73;;;7.90;99.90;;;;;;2106080;28;20043;-71
2021/11/05 01:47:30;;;;;;;20.02;12.60;;;7.90;99.90;;;;;;2105162;28;20115;-70
2021/11/05 01:48:31;;;;;;;17.83;12.20;;;7.90;99.90;;;;;;2105368;28;20020;-70
2021/11/05 01:49:32;;;;;;;19.60;12.77;;;7.90;99.90;;;;;;2106122;28;20388;-71
2021/11/05 01:50:34;;;;;;;18.33;12.05;;;7.90;99.90;;;;;;2105569;28;20058;-71
2021/11/05 01:51:36;;;;;;;16.80;11.65;;;7.90;99.90;;;;;;2105069;28;20051;-71
2021/11/05 01:52:39;;;;;;;21.38;12.68;;;7.90;99.90;;;;;;2106111;28;20514;-71
2021/11/05 01:53:41;;;;;;;18.95;12.38;;;7.90;99.90;;;;;;2106089;28;20024;-71
2021/11/05 01:54:42;;;;;;;18.80;12.25;;;7.90;99.90;;;;;;2105691;28;20031;-71
2021/11/05 01:55:44;;;;;;;19.50;12.35;;;7.90;99.90;;;;;;2106034;28;20024;-71
2021/11/05 01:56:45;;;;;;;19.33;12.52;;;7.90;99.90;;;;;;2096989;28;20028;-69
2021/11/05 01:57:46;;;;;;;18.58;12.25;;;7.90;99.90;;;;;;2097057;28;20111;-71
2021/11/05 01:58:47;;;;;;;16.77;11.82;;;7.90;99.90;;;;;;2106124;28;20035;-72
2021/11/05 01:59:52;;;;;;;19.55;12.75;;;7.90;99.90;;;;;;2105797;28;20091;-69
2021/11/05 02:00:53;;;;;;;18.35;12.13;;;7.90;99.90;;;;;;2106039;28;20028;-71
2021/11/05 02:01:55;;;;;;;19.25;12.48;;;7.90;99.90;;;;;;2105921;28;20031;-70
2021/11/05 02:02:56;;;;;;;18.85;12.88;;;7.90;99.90;;;;;;2106158;28;20123;-71
2021/11/05 02:03:56;;;;;;;21.05;12.75;;;7.90;99.90;;;;;;2106124;28;20028;-71
2021/11/05 02:04:57;;;;;;;20.42;11.85;;;7.90;99.90;;;;;;2105726;28;20069;-71
2021/11/05 02:06:00;;;;;;;17.50;12.25;;;7.90;99.90;;;;;;2106374;28;20032;-71
2021/11/05 02:07:00;;;;;;;19.20;12.55;;;7.90;99.90;;;;;;2106377;28;20032;-71
2021/11/05 02:08:02;;;;;;;18.67;12.40;;;7.90;99.90;;;;;;2105816;28;20028;-71
2021/11/05 02:09:03;;;;;;;19.95;12.25;;;7.90;99.90;;;;;;2105709;28;20505;-71
2021/11/05 02:10:05;;;;;;;18.48;11.90;;;7.90;99.90;;;;;;2106200;28;20032;-70
2021/11/05 02:11:06;;;;;;;19.15;12.57;;;7.90;99.90;;;;;;2105066;28;20670;-71
2021/11/05 02:12:07;;;;;;;19.13;12.45;;;7.90;99.90;;;;;;2096940;28;20043;-72
2021/11/05 02:13:12;;;;;;;19.52;12.50;;;7.90;99.90;;;;;;2105288;28;20677;-72
2021/11/05 02:14:16;;;;;;;19.90;12.48;;;7.90;99.90;;;;;;2105878;28;20507;-72
2021/11/05 02:15:17;;;;;;;19.15;12.75;;;7.90;99.90;;;;;;2106000;28;20031;-72
2021/11/05 02:16:21;;;;;;;19.13;12.75;;;7.90;99.90;;;;;;2105084;28;20020;-72
2021/11/05 02:17:21;;;;;;;20.60;12.88;;;7.90;99.90;;;;;;2105331;28;20024;-71
2021/11/05 02:18:23;;;;;;;20.27;13.27;;;7.90;99.90;;;;;;2105685;28;20032;-72
2021/11/05 02:19:26;;;;;;;18.98;13.07;;;7.90;99.90;;;;;;2105904;28;20767;-72
2021/11/05 02:20:27;;;;;;;20.95;12.95;;;7.90;99.90;;;;;;2105885;28;20446;-72
2021/11/05 02:21:36;;;;;;;17.65;12.00;;;7.90;99.90;;;;;;2105590;28;20024;-72
2021/11/05 02:22:37;;;;;;;18.70;12.63;;;7.90;99.90;;;;;;2105910;28;20752;-72
2021/11/05 02:23:37;;;;;;;21.38;13.43;;;7.90;99.90;;;;;;2105580;28;20028;-73
2021/11/05 02:24:38;;;;;;;19.73;13.38;;;7.90;99.90;;;;;;2105164;28;20091;-72
2021/11/05 02:25:39;;;;;;;20.00;13.07;;;7.90;99.90;;;;;;2105718;28;20046;-72
2021/11/05 02:26:41;;;;;;;22.25;13.32;;;7.90;99.90;;;;;;2104957;28;20028;-72
2021/11/05 02:27:41;;;;;;;20.15;13.32;;;7.90;99.90;;;;;;2105046;28;20364;-73
2021/11/05 02:28:42;;;;;;;20.90;12.50;;;7.90;99.90;;;;;;2105648;28;20081;-72
2021/11/05 02:29:43;;;;;;;19.75;12.98;;;7.90;99.90;;;;;;2105714;28;20035;-72
2021/11/05 02:30:43;;;;;;;20.40;13.43;;;7.90;99.90;;;;;;2105219;28;20023;-72
2021/11/05 02:31:46;;;;;;;22.23;13.50;;;7.90;99.90;;;;;;2104858;28;20111;-72
2021/11/05 02:32:46;;;;;;;21.83;13.73;;;7.90;99.90;;;;;;2105048;28;20490;-71
2021/11/05 02:33:48;;;;;;;19.50;13.00;;;7.90;99.90;;;;;;2105639;28;20023;-72
2021/11/05 02:34:48;;;;;;;21.15;13.48;;;7.90;99.90;;;;;;2105189;28;20035;-71
2021/11/05 02:35:49;;;;;;;21.05;14.23;;;7.90;99.90;;;;;;2104851;28;20030;-71
2021/11/05 02:36:50;;;;;;;20.20;13.70;;;7.90;99.90;;;;;;2104855;28;20020;-71
2021/11/05 02:37:50;;;;;;;20.70;13.48;;;7.90;99.90;;;;;;2104869;28;20035;-71
2021/11/05 02:38:51;;;;;;;22.92;14.25;;;7.90;99.90;;;;;;2105684;28;20027;-72
2021/11/05 02:39:52;;;;;;;19.20;12.70;;;7.90;99.90;;;;;;2105615;28;20016;-71
2021/11/05 02:40:53;;;;;;;20.15;13.00;;;7.90;99.90;;;;;;2104949;28;20024;-71
2021/11/05 02:41:54;;;;;;;19.92;13.77;;;7.90;99.90;;;;;;2104761;28;20491;-71
2021/11/05 02:42:54;;;;;;;20.80;13.85;;;7.90;99.90;;;;;;2105593;28;20028;-71
2021/11/05 02:43:55;;;;;;;21.48;14.27;;;8.00;99.90;;;;;;2105609;28;20028;-71
2021/11/05 02:44:56;;;;;;;19.80;13.45;;;7.90;99.90;;;;;;2105087;28;20020;-71
2021/11/05 02:45:56;;;;;;;22.45;13.95;;;8.00;99.90;;;;;;2105368;28;20024;-70
2021/11/05 02:46:57;;;;;;;21.63;14.40;;;7.90;99.90;;;;;;2105609;28;20036;-71
2021/11/05 02:47:57;;;;;;;20.67;13.02;;;7.90;99.90;;;;;;2105318;28;20039;-72
2021/11/05 02:49:05;;;;;;;19.58;13.13;;;8.00;99.90;;;;;;2105645;28;20033;-72
2021/11/05 02:50:10;;;;;;;19.67;13.35;;;7.90;99.90;;;;;;2106146;28;20027;-71
2021/11/05 02:51:11;;;;;;;20.70;13.77;;;7.90;99.90;;;;;;2106316;28;20107;-71
2021/11/05 02:52:13;;;;;;;21.45;13.35;;;7.90;99.90;;;;;;2105269;28;20498;-70
2021/11/05 02:53:14;;;;;;;22.52;14.23;;;7.90;99.90;;;;;;2096857;28;20115;-71
2021/11/05 02:54:15;;;;;;;21.75;13.85;;;7.90;99.90;;;;;;2104511;28;20487;-71
2021/11/05 02:55:16;;;;;;;22.05;13.88;;;7.90;99.90;;;;;;2105632;28;20157;-72
2021/11/05 02:56:17;;;;;;;21.80;13.75;;;7.90;99.90;;;;;;2104775;28;20518;-71
2021/11/05 02:57:17;;;;;;;21.60;13.85;;;7.90;99.90;;;;;;2105094;28;20032;-70
2021/11/05 02:58:19;;;;;;;21.30;14.18;;;7.90;99.90;;;;;;2105278;28;20065;-72
2021/11/05 02:59:19;;;;;;;20.92;14.07;;;7.90;99.90;;;;;;2105018;28;20035;-71
2021/11/05 03:00:20;;;;;;;20.20;13.60;;;7.90;99.90;;;;;;2105023;28;20066;-71
2021/11/05 03:01:21;;;;;;;19.85;13.30;;;7.90;99.90;;;;;;2104726;28;20445;-70
2021/11/05 03:02:23;;;;;;;23.50;14.43;;;7.90;99.90;;;;;;2104954;28;20038;-70
2021/11/05 03:03:24;;;;;;;19.25;13.07;;;7.90;99.90;;;;;;2105550;28;20067;-71
2021/11/05 03:04:25;;;;;;;22.15;13.40;;;7.90;99.90;;;;;;2104920;28;20039;-70
2021/11/05 03:05:25;;;;;;;21.35;13.40;;;7.90;99.90;;;;;;2105478;28;20028;-71
2021/11/05 03:06:26;;;;;;;20.13;13.35;;;7.90;99.90;;;;;;2105138;28;20039;-71
2021/11/05 03:07:27;;;;;;;22.73;14.13;;;7.90;99.90;;;;;;2105513;28;20020;-71
2021/11/05 03:08:27;;;;;;;19.05;12.73;;;8.00;99.90;;;;;;2105411;28;20024;-71
2021/11/05 03:09:34;;;;;;;22.05;13.65;;;7.90;99.90;;;;;;2105356;28;20475;-71
2021/11/05 03:10:34;;;;;;;19.92;13.20;;;7.90;99.90;;;;;;2105332;28;20078;-71
2021/11/05 03:11:35;;;;;;;19.67;12.55;;;8.00;99.90;;;;;;2104353;28;20058;-71
2021/11/05 03:12:36;;;;;;;20.58;13.20;;;8.00;99.90;;;;;;2104778;28;20046;-71
2021/11/05 03:13:37;;;;;;;18.90;12.80;;;7.90;99.90;;;;;;2105338;28;20024;-71
2021/11/05 03:14:39;;;;;;;18.80;12.73;;;8.00;99.90;;;;;;2104888;28;20042;-71
2021/11/05 03:15:39;;;;;;;20.85;12.82;;;8.00;99.90;;;;;;2105348;28;20035;-71
2021/11/05 03:16:40;;;;;;;18.58;12.38;;;8.00;99.90;;;;;;2105382;28;20039;-71
2021/11/05 03:17:42;;;;;;;18.50;12.85;;;7.90;99.90;;;;;;2105360;28;20077;-71
2021/11/05 03:18:44;;;;;;;17.85;12.27;;;8.00;99.90;;;;;;2105165;28;20031;-71
2021/11/05 03:19:44;;;;;;;18.42;12.75;;;7.90;99.90;;;;;;2105232;28;20063;-71
2021/11/05 03:20:46;;;;;;;19.65;12.90;;;8.00;99.90;;;;;;2105270;28;20036;-71
2021/11/05 03:21:47;;;;;;;19.58;13.13;;;7.90;99.90;;;;;;2105051;28;20035;-71
2021/11/05 03:22:47;;;;;;;19.35;12.30;;;8.00;99.90;;;;;;2105344;28;20048;-71
2021/11/05 03:23:48;;;;;;;18.08;12.27;;;8.00;99.90;;;;;;2105261;28;20023;-71
2021/11/05 03:24:49;;;;;;;17.67;12.25;;;8.00;99.90;;;;;;2104842;28;20109;-71
2021/11/05 03:25:50;;;;;;;17.67;12.38;;;8.00;99.90;;;;;;2105314;28;20030;-71
2021/11/05 03:26:51;;;;;;;18.55;12.15;;;8.00;99.90;;;;;;2104914;28;20091;-71
2021/11/05 03:27:51;;;;;;;19.73;12.55;;;8.00;99.90;;;;;;2105227;28;20032;-71
2021/11/05 03:28:52;;;;;;;18.17;11.82;;;8.00;99.90;;;;;;2105432;28;20544;-72
2021/11/05 03:29:53;;;;;;;18.02;12.45;;;8.00;99.90;;;;;;2105468;28;20052;-71
2021/11/05 03:30:54;;;;;;;19.05;12.20;;;8.00;99.90;;;;;;2105347;28;20103;-71
2021/11/05 03:31:54;;;;;;;17.45;12.23;;;8.00;99.90;;;;;;2105064;28;20024;-71
2021/11/05 03:32:55;;;;;;;18.20;12.35;;;8.00;99.90;;;;;;2104701;28;20039;-71
2021/11/05 03:33:56;;;;;;;16.40;11.98;;;8.00;99.90;;;;;;2088042;28;20024;-71
2021/11/05 03:34:57;;;;;;;17.02;12.05;;;8.00;99.90;;;;;;2087575;28;20064;-71
2021/11/05 03:35:57;;;;;;;17.58;12.35;;;8.00;99.90;;;;;;2104508;28;20043;-71
2021/11/05 03:36:58;;;;;;;17.70;12.45;;;8.00;99.90;;;;;;2105083;28;20592;-71
2021/11/05 03:37:59;;;;;;;16.85;11.90;;;8.00;99.90;;;;;;2105357;28;20035;-71
2021/11/05 03:38:59;;;;;;;18.48;12.65;;;8.00;99.90;;;;;;2105470;28;20032;-71
2021/11/05 03:40:02;;;;;;;17.67;11.32;;;8.00;99.90;;;;;;2105398;28;20474;-70
2021/11/05 03:41:03;;;;;;;16.63;11.48;;;8.00;99.90;;;;;;2105222;28;20114;-71
2021/11/05 03:42:04;;;;;;;17.65;11.85;;;8.00;99.90;;;;;;2105055;28;20031;-71
2021/11/05 03:43:05;;;;;;;15.98;11.52;;;8.00;99.90;;;;;;2104858;28;20040;-71
2021/11/05 03:44:05;;;;;;;17.45;12.23;;;8.00;99.90;;;;;;2105568;28;20040;-71
2021/11/05 03:45:06;;;;;;;17.08;12.00;;;8.00;99.90;;;;;;2106068;28;20024;-71
2021/11/05 03:46:07;;;;;;;18.27;12.10;;;8.00;99.90;;;;;;2106426;28;20036;-71
2021/11/05 03:47:07;;;;;;;15.77;11.55;;;8.00;99.90;;;;;;2107322;28;20024;-71
2021/11/05 03:48:08;;;;;;;18.35;11.93;;;8.00;99.90;;;;;;2107497;28;20032;-71
2021/11/05 03:49:09;;;;;;;18.58;12.52;;;8.00;99.90;;;;;;2107816;28;20048;-71
2021/11/05 03:50:10;;;;;;;16.73;12.40;;;8.00;99.90;;;;;;2107759;28;20039;-71
2021/11/05 03:51:11;;;;;;;16.50;12.00;;;8.00;99.90;;;;;;2107675;28;20520;-71
2021/11/05 03:52:12;;;;;;;17.58;11.70;;;8.00;99.90;;;;;;2106804;28;20755;-71
2021/11/05 03:53:12;;;;;;;15.48;11.27;;;8.00;99.90;;;;;;2098756;28;20028;-71
2021/11/05 03:54:13;;;;;;;16.58;11.65;;;8.00;99.90;;;;;;2107418;28;20530;-71
2021/11/05 03:55:14;;;;;;;17.60;12.27;;;8.00;99.90;;;;;;2107822;28;20050;-71
2021/11/05 03:56:14;;;;;;;18.13;11.40;;;8.00;99.90;;;;;;2107702;28;20058;-71
2021/11/05 03:57:15;;;;;;;16.55;11.65;;;8.00;99.90;;;;;;2107174;28;20644;-71
2021/11/05 03:58:16;;;;;;;17.15;11.88;;;8.00;99.90;;;;;;2107501;28;20123;-72
2021/11/05 03:59:17;;;;;;;16.95;11.95;;;8.00;99.90;;;;;;2107885;28;20548;-71
2021/11/05 04:00:18;;;;;;;16.20;11.20;;;8.00;99.90;;;;;;2108903;28;20070;-72
2021/11/05 04:01:20;;;;;;;17.35;11.65;;;8.00;99.90;;;;;;2108795;28;20119;-72
2021/11/05 04:02:20;;;;;;;16.58;11.98;;;8.00;99.90;;;;;;2109193;28;20028;-72
2021/11/05 04:03:23;;;;;;;19.25;12.60;;;8.00;99.90;;;;;;2107064;28;20058;-72
2021/11/05 04:04:23;;;;;;;16.65;11.77;;;8.00;99.90;;;;;;2106095;28;20071;-72
2021/11/05 04:05:24;;;;;;;16.20;11.30;;;8.00;99.90;;;;;;2106388;28;20074;-71
2021/11/05 04:06:25;;;;;;;16.77;11.85;;;8.00;99.90;;;;;;2106205;28;20036;-71
2021/11/05 04:07:26;;;;;;;16.23;11.50;;;8.00;99.90;;;;;;2106304;28;20468;-71
2021/11/05 04:08:26;;;;;;;17.00;11.48;;;8.00;99.90;;;;;;2106874;28;20075;-71
2021/11/05 04:09:27;;;;;;;16.40;11.40;;;8.00;99.90;;;;;;2106883;28;20063;-71
2021/11/05 04:10:28;;;;;;;16.15;11.38;;;8.00;99.90;;;;;;2106756;28;20028;-71
2021/11/05 04:11:28;;;;;;;15.60;10.88;;;8.00;99.90;;;;;;2106347;28;20116;-71
2021/11/05 04:12:29;;;;;;;15.45;11.05;;;8.00;99.90;;;;;;2106923;28;20020;-71
2021/11/05 04:13:29;;;;;;;16.10;11.23;;;8.00;99.90;;;;;;2106134;28;20488;-71
2021/11/05 04:14:30;;;;;;;16.00;11.20;;;8.00;99.90;;;;;;2105678;28;20070;-71
2021/11/05 04:15:31;;;;;;;15.65;11.40;;;8.00;99.90;;;;;;2106793;28;20518;-71
2021/11/05 04:16:31;;;;;;;14.25;10.85;;;8.00;99.90;;;;;;2106643;28;20091;-71
2021/11/05 04:17:32;;;;;;;15.10;10.98;;;8.00;99.90;;;;;;2106592;28;20476;-71
2021/11/05 04:18:33;;;;;;;14.82;11.13;;;8.00;99.90;;;;;;2106747;28;20121;-71
2021/11/05 04:19:34;;;;;;;15.40;11.00;;;8.00;99.90;;;;;;2106804;28;20023;-71
2021/11/05 04:20:34;;;;;;;15.82;11.63;;;8.00;99.90;;;;;;2106725;28;20032;-71
2021/11/05 04:21:35;;;;;;;15.13;11.02;;;8.00;99.90;;;;;;2106509;28;20036;-71
2021/11/05 04:22:38;;;;;;;15.10;10.98;;;8.00;99.90;;;;;;2106811;28;20040;-71
2021/11/05 04:23:38;;;;;;;15.23;11.45;;;8.00;99.90;;;;;;2106675;28;20028;-71
2021/11/05 04:24:39;;;;;;;14.15;11.02;;;8.00;99.90;;;;;;2106592;28;20070;-71
2021/11/05 04:25:39;;;;;;;17.52;11.68;;;8.00;99.90;;;;;;2106532;28;20119;-71
2021/11/05 04:26:40;;;;;;;17.50;11.88;;;8.00;99.90;;;;;;2106114;28;20040;-71
2021/11/05 04:27:41;;;;;;;14.82;10.93;;;7.90;99.90;;;;;;2106569;28;20039;-71
2021/11/05 04:28:42;;;;;;;16.05;11.43;;;7.90;99.90;;;;;;2106856;28;20048;-71
2021/11/05 04:29:43;;;;;;;16.27;11.27;;;7.90;99.90;;;;;;2106092;28;20028;-71
2021/11/05 04:30:45;;;;;;;16.45;11.70;;;7.90;99.90;;;;;;2106324;28;20012;-71
2021/11/05 04:31:45;;;;;;;16.55;11.48;;;7.90;99.90;;;;;;2106483;28;20030;-71
2021/11/05 04:32:46;;;;;;;17.10;11.52;;;7.90;99.90;;;;;;2106757;28;20031;-71
2021/11/05 04:33:46;;;;;;;16.13;11.30;;;7.90;99.90;;;;;;2106685;28;20027;-71
2021/11/05 04:34:47;;;;;;;16.05;11.07;;;7.80;99.90;;;;;;2106211;28;20528;-71
2021/11/05 04:35:48;;;;;;;14.45;11.35;;;7.90;99.90;;;;;;2106613;28;20084;-72
2021/11/05 04:36:48;;;;;;;17.10;11.30;;;7.80;99.90;;;;;;2106336;28;20062;-71
2021/11/05 04:37:49;;;;;;;15.68;11.00;;;7.80;99.90;;;;;;2106685;28;20098;-69
2021/11/05 04:38:50;;;;;;;15.70;10.85;;;7.80;99.90;;;;;;2106558;28;20459;-70
2021/11/05 04:39:51;;;;;;;15.02;11.23;;;7.80;99.90;;;;;;2106068;28;20024;-71
2021/11/05 04:40:52;;;;;;;16.30;11.77;;;7.80;99.90;;;;;;2106323;28;20031;-70
2021/11/05 04:41:52;;;;;;;15.60;11.38;;;7.80;99.90;;;;;;2105899;28;20028;-71
2021/11/05 04:42:53;;;;;;;15.57;11.07;;;7.80;99.90;;;;;;2106112;28;20028;-71
2021/11/05 04:43:54;;;;;;;16.05;11.35;;;7.80;99.90;;;;;;2106947;28;20034;-71
2021/11/05 04:44:55;;;;;;;16.55;10.77;;;7.80;99.90;;;;;;2106096;28;20024;-70
2021/11/05 04:45:56;;;;;;;15.95;11.35;;;7.80;99.90;;;;;;2106593;28;20111;-69
2021/11/05 04:46:56;;;;;;;15.15;11.10;;;7.80;99.90;;;;;;2105913;28;20470;-70
2021/11/05 04:47:57;;;;;;;14.38;10.93;;;7.80;99.90;;;;;;2106002;28;20509;-69
2021/11/05 04:48:58;;;;;;;14.75;11.10;;;7.80;99.90;;;;;;2106256;28;20028;-69
2021/11/05 04:49:58;;;;;;;15.02;11.40;;;7.80;99.90;;;;;;2097339;28;20028;-70
2021/11/05 04:50:59;;;;;;;17.20;12.07;;;7.80;99.90;;;;;;2097490;28;20028;-68
2021/11/05 04:52:00;;;;;;;15.85;11.70;;;7.80;99.90;;;;;;2098041;28;20492;-68
2021/11/05 04:53:00;;;;;;;17.08;11.93;;;7.80;99.90;;;;;;2106709;28;20022;-69
2021/11/05 04:54:02;;;;;;;16.27;11.65;;;7.80;99.90;;;;;;2105964;28;20028;-68
2021/11/05 04:55:05;;;;;;;17.77;11.40;;;7.80;99.90;;;;;;2106091;28;20028;-69
2021/11/05 04:56:05;;;;;;;15.70;11.57;;;7.80;99.90;;;;;;2106145;28;20496;-69
2021/11/05 04:57:09;;;;;;;17.88;12.25;;;7.80;99.90;;;;;;2106597;28;20139;-69
2021/11/05 04:58:10;;;;;;;16.85;11.98;;;7.80;99.90;;;;;;2097352;28;20036;-69
2021/11/05 04:59:11;;;;;;;16.80;11.82;;;7.70;99.90;;;;;;2097481;28;20047;-70
2021/11/05 05:00:14;;;;;;;17.05;12.02;;;7.80;99.90;;;;;;2105769;28;20111;-70
2021/11/05 05:01:14;;;;;;;16.35;12.13;;;7.80;99.90;;;;;;2097150;28;20039;-70
2021/11/05 05:02:17;;;;;;;16.48;11.80;;;7.80;99.90;;;;;;2105963;28;20060;-71
2021/11/05 05:03:18;;;;;;;16.70;11.38;;;7.80;99.90;;;;;;2096656;28;20067;-70
2021/11/05 05:04:19;;;;;;;16.85;12.07;;;7.80;99.90;;;;;;2096928;28;20041;-70
2021/11/05 05:05:20;;;;;;;17.95;12.50;;;7.80;99.90;;;;;;2106511;28;20115;-69
2021/11/05 05:06:21;;;;;;;18.65;13.02;;;7.80;99.90;;;;;;2106284;28;20039;-69
2021/11/05 05:07:22;;;;;;;18.45;12.82;;;7.80;99.90;;;;;;2106333;28;20395;-71
2021/11/05 05:08:22;;;;;;;18.08;12.48;;;7.80;99.90;;;;;;2106462;28;20092;-70
2021/11/05 05:09:23;;;;;;;17.88;12.45;;;7.80;99.90;;;;;;2106433;28;20107;-70
2021/11/05 05:10:25;;;;;;;18.60;12.48;;;7.80;99.90;;;;;;2106461;28;20435;-70
2021/11/05 05:11:32;;;;;;;17.92;12.43;;;7.80;99.90;;;;;;2106085;28;20107;-71
2021/11/05 05:12:33;;;;;;;20.33;12.90;;;7.80;99.90;;;;;;2106365;28;20024;-70
2021/11/05 05:13:34;;;;;;;16.52;11.90;;;7.80;99.90;;;;;;2105597;28;20031;-70
2021/11/05 05:14:35;;;;;;;15.95;12.20;;;7.80;99.90;;;;;;2097016;28;20523;-70
2021/11/05 05:15:35;;;;;;;18.15;12.13;;;7.80;99.90;;;;;;2105609;28;20031;-70